Time,TemperatureF,DewpointF,PressureIn,WindDirection,WindDirectionDegrees,WindSpeedMPH,WindSpeedGustMPH,Humidity,HourlyPrecipIn,Conditions,Clouds,dailyrainin,SoftwareType,DateUTC
2013-01-13 00:00:00,39.4,38.7,30.14,WNW,285,0.0,0.0,97,0.00,,,0.00,meteohub,2013-01-13 05:00:00,
2013-01-13 00:03:00,39.4,38.7,30.14,WNW,285,0.0,0.0,97,0.00,,,0.00,meteohub,2013-01-13 05:03:00,
2013-01-13 00:08:00,39.0,38.3,30.14,WNW,285,0.0,0.0,97,0.00,,,0.00,meteohub,2013-01-13 05:08:00,
2013-01-13 00:13:00,39.0,38.3,30.14,WNW,284,0.0,0.0,97,0.00,,,0.00,meteohub,2013-01-13 05:13:00,
2013-01-13 00:18:00,38.3,37.6,30.14,WNW,284,0.0,1.0,97,0.00,,,0.00,meteohub,2013-01-13 05:18:00,
2013-01-13 00:23:00,38.1,37.4,30.15,WNW,284,2.0,2.0,97,0.00,,,0.00,meteohub,2013-01-13 05:23:00,
2013-01-13 00:28:00,38.7,37.9,30.15,WNW,286,2.0,2.0,97,0.00,,,0.00,meteohub,2013-01-13 05:28:00,
2013-01-13 00:33:00,38.8,38.1,30.15,WNW,286,0.0,3.0,97,0.00,,,0.00,meteohub,2013-01-13 05:33:00,
2013-01-13 00:38:00,39.0,38.3,30.14,WNW,286,0.0,3.0,97,0.00,,,0.00,meteohub,2013-01-13 05:38:00,
2013-01-13 00:43:00,39.4,38.7,30.14,WNW,286,0.0,3.0,97,0.00,,,0.00,meteohub,2013-01-13 05:43:00,
2013-01-13 00:48:00,39.6,38.8,30.14,WNW,286,0.0,2.0,97,0.00,,,0.00,meteohub,2013-01-13 05:48:00,
2013-01-13 00:53:00,39.6,38.8,30.14,WNW,286,0.0,2.0,97,0.00,,,0.00,meteohub,2013-01-13 05:53:00,
2013-01-13 00:58:00,39.9,39.2,30.14,WNW,286,0.0,2.0,97,0.00,,,0.00,meteohub,2013-01-13 05:58:00,
2013-01-13 01:03:00,39.9,39.2,30.13,WNW,286,0.0,2.0,97,0.00,,,0.00,meteohub,2013-01-13 06:03:00,
2013-01-13 01:08:00,39.9,39.2,30.14,WNW,286,0.0,1.0,97,0.00,,,0.00,meteohub,2013-01-13 06:08:00,
2013-01-13 01:13:00,39.7,39.0,30.14,WNW,286,0.0,1.0,97,0.00,,,0.00,meteohub,2013-01-13 06:13:00,
2013-01-13 01:18:00,39.4,38.7,30.14,WNW,286,1.0,1.0,97,0.00,,,0.00,meteohub,2013-01-13 06:18:00,
2013-01-13 01:23:00,39.2,38.5,30.13,WNW,286,0.0,1.0,97,0.00,,,0.00,meteohub,2013-01-13 06:23:00,
2013-01-13 01:28:00,39.4,38.7,30.14,WNW,286,0.0,1.0,97,0.00,,,0.00,meteohub,2013-01-13 06:28:00,
2013-01-13 01:33:00,39.4,38.7,30.14,WNW,286,0.0,1.0,97,0.00,,,0.00,meteohub,2013-01-13 06:33:00,
2013-01-13 01:38:00,39.6,38.8,30.14,WNW,286,0.0,1.0,97,0.00,,,0.00,meteohub,2013-01-13 06:38:00,
2013-01-13 01:43:00,39.7,39.0,30.14,WNW,286,0.0,1.0,97,0.00,,,0.00,meteohub,2013-01-13 06:43:00,
2013-01-13 01:48:00,39.7,39.0,30.14,WNW,286,0.0,1.0,97,0.00,,,0.00,meteohub,2013-01-13 06:48:00,
2013-01-13 01:53:00,39.9,39.2,30.14,WNW,286,0.0,1.0,97,0.00,,,0.00,meteohub,2013-01-13 06:53:00,
2013-01-13 01:58:00,39.9,39.2,30.14,WNW,286,0.0,1.0,97,0.00,,,0.00,meteohub,2013-01-13 06:58:00,
2013-01-13 02:04:00,39.9,39.2,30.14,WNW,286,0.0,1.0,97,0.00,,,0.00,meteohub,2013-01-13 07:04:00,
2013-01-13 02:09:00,40.1,39.4,30.14,WNW,286,0.0,1.0,97,0.00,,,0.00,meteohub,2013-01-13 07:09:00,
2013-01-13 02:14:00,39.9,39.2,30.15,WNW,286,1.0,2.0,97,0.00,,,0.00,meteohub,2013-01-13 07:14:00,
2013-01-13 02:19:00,40.3,39.6,30.14,South,188,0.0,2.0,97,0.00,,,0.00,meteohub,2013-01-13 07:19:00,
2013-01-13 02:24:00,40.5,39.7,30.14,South,188,0.0,2.0,97,0.00,,,0.00,meteohub,2013-01-13 07:24:00,
2013-01-13 02:29:00,40.5,39.7,30.14,SSW,207,0.0,1.0,97,0.00,,,0.00,meteohub,2013-01-13 07:29:00,
2013-01-13 02:34:00,40.6,39.9,30.14,SSW,207,1.0,1.0,97,0.00,,,0.00,meteohub,2013-01-13 07:34:00,
2013-01-13 02:39:00,40.5,39.7,30.14,SSW,207,0.0,2.0,97,0.00,,,0.00,meteohub,2013-01-13 07:39:00,
2013-01-13 02:44:00,40.5,39.7,30.14,SW,223,0.0,2.0,97,0.00,,,0.00,meteohub,2013-01-13 07:44:00,
2013-01-13 02:49:00,40.6,39.9,30.14,SW,223,0.0,1.0,97,0.00,,,0.00,meteohub,2013-01-13 07:49:00,
2013-01-13 02:54:00,40.8,40.1,30.14,SW,223,0.0,1.0,97,0.00,,,0.00,meteohub,2013-01-13 07:54:00,
2013-01-13 02:59:00,40.8,40.1,30.14,SW,223,0.0,1.0,97,0.00,,,0.00,meteohub,2013-01-13 07:59:00,
2013-01-13 03:04:00,40.8,40.1,30.14,SW,223,0.0,1.0,97,0.00,,,0.00,meteohub,2013-01-13 08:04:00,
2013-01-13 03:09:00,40.6,39.9,30.14,SW,223,0.0,1.0,97,0.00,,,0.00,meteohub,2013-01-13 08:09:00,
2013-01-13 03:14:00,40.3,39.6,30.14,SW,223,0.0,2.0,97,0.00,,,0.00,meteohub,2013-01-13 08:14:00,
2013-01-13 03:19:00,40.3,39.6,30.14,SW,223,0.0,2.0,97,0.00,,,0.00,meteohub,2013-01-13 08:19:00,
2013-01-13 03:24:00,40.1,39.4,30.14,SW,223,0.0,1.0,97,0.00,,,0.00,meteohub,2013-01-13 08:24:00,
2013-01-13 03:29:00,40.3,39.6,30.14,SW,223,0.0,1.0,97,0.00,,,0.00,meteohub,2013-01-13 08:29:00,
2013-01-13 03:34:00,40.1,39.4,30.13,SW,223,0.0,1.0,97,0.00,,,0.00,meteohub,2013-01-13 08:34:00,
2013-01-13 03:39:00,40.1,39.4,30.14,SW,223,0.0,1.0,97,0.00,,,0.00,meteohub,2013-01-13 08:39:00,
2013-01-13 03:44:00,40.1,39.4,30.13,SW,223,0.0,1.0,97,0.00,,,0.00,meteohub,2013-01-13 08:44:00,
2013-01-13 03:49:00,40.3,39.6,30.13,SW,223,0.0,1.0,97,0.00,,,0.00,meteohub,2013-01-13 08:49:00,
2013-01-13 03:54:00,40.3,39.6,30.12,SW,223,0.0,1.0,97,0.00,,,0.00,meteohub,2013-01-13 08:54:00,
2013-01-13 03:59:00,40.3,39.6,30.12,SW,223,0.0,1.0,97,0.00,,,0.00,meteohub,2013-01-13 08:59:00,
2013-01-13 04:04:00,39.9,39.2,30.12,SW,223,0.0,1.0,97,0.00,,,0.00,meteohub,2013-01-13 09:04:00,
2013-01-13 04:09:00,39.9,39.2,30.11,SW,223,1.0,1.0,97,0.00,,,0.00,meteohub,2013-01-13 09:09:00,
2013-01-13 04:14:00,40.1,39.4,30.11,SW,223,0.0,1.0,97,0.00,,,0.00,meteohub,2013-01-13 09:14:00,
2013-01-13 04:19:00,40.1,39.4,30.11,SW,223,0.0,1.0,97,0.00,,,0.00,meteohub,2013-01-13 09:19:00,
2013-01-13 04:24:00,39.9,39.2,30.11,SW,223,1.0,1.0,97,0.00,,,0.00,meteohub,2013-01-13 09:24:00,
2013-01-13 04:29:00,39.7,39.0,30.12,SW,223,0.0,2.0,97,0.00,,,0.00,meteohub,2013-01-13 09:29:00,
2013-01-13 04:34:00,39.9,39.2,30.12,SW,223,0.0,2.0,97,0.00,,,0.00,meteohub,2013-01-13 09:34:00,
2013-01-13 04:39:00,40.3,39.6,30.11,SW,223,0.0,2.0,97,0.00,,,0.00,meteohub,2013-01-13 09:39:00,
2013-01-13 04:44:00,40.5,39.7,30.11,SW,223,0.0,2.0,97,0.00,,,0.00,meteohub,2013-01-13 09:44:00,
2013-01-13 04:49:00,40.3,39.6,30.10,SW,223,0.0,1.0,97,0.00,,,0.00,meteohub,2013-01-13 09:49:00,
2013-01-13 04:54:00,40.3,39.6,30.10,SW,223,0.0,1.0,97,0.00,,,0.00,meteohub,2013-01-13 09:54:00,
2013-01-13 04:59:00,40.5,39.7,30.10,SW,223,0.0,1.0,97,0.00,,,0.00,meteohub,2013-01-13 09:59:00,
2013-01-13 05:04:00,40.5,39.7,30.09,ESE,118,1.0,1.0,97,0.00,,,0.00,meteohub,2013-01-13 10:04:00,
2013-01-13 05:09:00,40.5,39.7,30.09,ESE,119,0.0,2.0,97,0.00,,,0.00,meteohub,2013-01-13 10:09:00,
2013-01-13 05:14:00,40.3,39.6,30.09,ESE,119,0.0,2.0,97,0.00,,,0.00,meteohub,2013-01-13 10:14:00,
2013-01-13 05:19:00,40.5,39.7,30.09,South,182,1.0,2.0,97,0.00,,,0.00,meteohub,2013-01-13 10:19:00,
2013-01-13 05:24:00,39.9,39.2,30.10,WSW,249,0.0,2.0,97,0.00,,,0.00,meteohub,2013-01-13 10:24:00,
2013-01-13 05:29:00,39.6,38.8,30.11,WSW,249,1.0,2.0,97,0.00,,,0.00,meteohub,2013-01-13 10:29:00,
2013-01-13 05:34:00,39.4,38.7,30.11,WSW,249,0.0,2.0,97,0.00,,,0.00,meteohub,2013-01-13 10:34:00,
2013-01-13 05:39:00,39.4,38.7,30.11,West,259,0.0,2.0,97,0.00,,,0.00,meteohub,2013-01-13 10:39:00,
2013-01-13 05:44:00,39.7,39.0,30.11,West,259,0.0,2.0,97,0.00,,,0.00,meteohub,2013-01-13 10:44:00,
2013-01-13 05:49:00,39.9,39.2,30.11,West,259,0.0,2.0,97,0.00,,,0.00,meteohub,2013-01-13 10:49:00,
2013-01-13 05:54:00,39.9,39.2,30.12,West,259,0.0,2.0,97,0.00,,,0.00,meteohub,2013-01-13 10:54:00,
2013-01-13 05:59:00,40.1,39.4,30.12,West,259,0.0,1.0,97,0.00,,,0.00,meteohub,2013-01-13 10:59:00,
2013-01-13 06:04:00,39.9,39.2,30.12,West,259,0.0,1.0,97,0.00,,,0.00,meteohub,2013-01-13 11:04:00,
2013-01-13 06:09:00,39.7,39.0,30.12,West,259,0.0,1.0,97,0.00,,,0.00,meteohub,2013-01-13 11:09:00,
2013-01-13 06:14:00,39.6,38.8,30.12,West,259,0.0,1.0,97,0.00,,,0.00,meteohub,2013-01-13 11:14:00,
2013-01-13 06:19:00,39.7,39.0,30.12,West,259,0.0,1.0,97,0.00,,,0.00,meteohub,2013-01-13 11:19:00,
2013-01-13 06:24:00,39.9,39.2,30.11,West,259,0.0,1.0,97,0.00,,,0.00,meteohub,2013-01-13 11:24:00,
2013-01-13 06:29:00,39.9,39.2,30.12,West,259,0.0,1.0,97,0.00,,,0.00,meteohub,2013-01-13 11:29:00,
2013-01-13 06:34:00,39.9,39.2,30.11,West,259,0.0,1.0,97,0.00,,,0.00,meteohub,2013-01-13 11:34:00,
2013-01-13 06:39:00,39.9,39.2,30.11,West,259,0.0,1.0,97,0.00,,,0.00,meteohub,2013-01-13 11:39:00,
2013-01-13 06:44:00,39.7,39.0,30.12,West,259,0.0,0.0,97,0.00,,,0.00,meteohub,2013-01-13 11:44:00,
2013-01-13 06:49:00,39.7,39.0,30.12,West,259,0.0,1.0,97,0.00,,,0.00,meteohub,2013-01-13 11:49:00,
2013-01-13 06:54:00,39.7,39.0,30.12,West,259,0.0,1.0,97,0.00,,,0.00,meteohub,2013-01-13 11:54:00,
2013-01-13 06:59:00,39.6,38.8,30.12,West,259,0.0,1.0,97,0.00,,,0.00,meteohub,2013-01-13 11:59:00,
2013-01-13 07:04:00,39.7,39.0,30.12,West,259,0.0,1.0,97,0.00,,,0.00,meteohub,2013-01-13 12:04:00,
2013-01-13 07:09:00,39.7,39.0,30.12,West,259,0.0,0.0,97,0.00,,,0.00,meteohub,2013-01-13 12:09:00,
2013-01-13 07:14:00,39.7,39.0,30.12,West,259,0.0,0.0,97,0.00,,,0.00,meteohub,2013-01-13 12:14:00,
2013-01-13 07:19:00,39.9,39.2,30.12,West,259,0.0,0.0,97,0.00,,,0.00,meteohub,2013-01-13 12:19:00,
2013-01-13 07:24:00,39.9,39.2,30.13,West,259,0.0,0.0,97,0.00,,,0.00,meteohub,2013-01-13 12:24:00,
2013-01-13 07:29:00,40.1,39.4,30.13,West,259,0.0,0.0,97,0.00,,,0.00,meteohub,2013-01-13 12:29:00,
2013-01-13 07:34:00,39.9,39.2,30.13,West,259,0.0,0.0,97,0.00,,,0.00,meteohub,2013-01-13 12:34:00,
2013-01-13 07:39:00,40.1,39.4,30.13,West,259,0.0,0.0,97,0.00,,,0.00,meteohub,2013-01-13 12:39:00,
2013-01-13 07:44:00,40.3,39.6,30.13,West,259,0.0,0.0,97,0.00,,,0.00,meteohub,2013-01-13 12:44:00,
2013-01-13 07:49:00,40.3,39.6,30.14,West,259,0.0,0.0,97,0.00,,,0.00,meteohub,2013-01-13 12:49:00,
2013-01-13 07:55:00,39.9,39.2,30.14,West,259,0.0,0.0,97,0.00,,,0.00,meteohub,2013-01-13 12:55:00,
2013-01-13 08:00:00,39.7,39.0,30.14,West,259,0.0,0.0,97,0.00,,,0.00,meteohub,2013-01-13 13:00:00,
2013-01-13 08:05:00,39.7,39.0,30.14,West,259,0.0,1.0,97,0.00,,,0.00,meteohub,2013-01-13 13:05:00,
2013-01-13 08:10:00,40.3,39.6,30.14,West,259,0.0,1.0,97,0.00,,,0.00,meteohub,2013-01-13 13:10:00,
2013-01-13 08:15:00,40.5,39.7,30.14,West,259,0.0,1.0,97,0.00,,,0.00,meteohub,2013-01-13 13:15:00,
2013-01-13 08:20:00,40.5,39.7,30.14,SSW,194,0.0,1.0,97,0.00,,,0.00,meteohub,2013-01-13 13:20:00,
2013-01-13 08:25:00,40.6,39.9,30.14,SSW,194,0.0,2.0,97,0.00,,,0.00,meteohub,2013-01-13 13:25:00,
2013-01-13 08:30:00,40.8,40.1,30.14,West,279,1.0,2.0,97,0.00,,,0.00,meteohub,2013-01-13 13:30:00,
2013-01-13 08:35:00,41.0,40.3,30.14,West,279,0.0,1.0,97,0.00,,,0.00,meteohub,2013-01-13 13:35:00,
2013-01-13 08:40:00,41.2,40.5,30.14,West,279,0.0,1.0,97,0.00,,,0.00,meteohub,2013-01-13 13:40:00,
2013-01-13 08:45:00,41.2,40.5,30.14,SSE,148,0.0,1.0,97,0.00,,,0.00,meteohub,2013-01-13 13:45:00,
2013-01-13 08:50:00,41.4,40.6,30.14,South,173,0.0,1.0,97,0.00,,,0.00,meteohub,2013-01-13 13:50:00,
2013-01-13 08:55:00,41.5,40.8,30.14,South,176,0.0,1.0,97,0.00,,,0.00,meteohub,2013-01-13 13:55:00,
2013-01-13 09:00:00,41.5,40.8,30.14,ESE,105,0.0,1.0,97,0.00,,,0.00,meteohub,2013-01-13 14:00:00,
2013-01-13 09:05:00,41.7,41.0,30.14,ESE,105,0.0,1.0,97,0.00,,,0.00,meteohub,2013-01-13 14:05:00,
2013-01-13 09:10:00,41.9,41.2,30.15,ESE,105,0.0,1.0,97,0.00,,,0.00,meteohub,2013-01-13 14:10:00,
2013-01-13 09:15:00,41.9,41.2,30.14,SW,216,0.0,2.0,97,0.00,,,0.00,meteohub,2013-01-13 14:15:00,
2013-01-13 09:20:00,42.1,41.4,30.14,SW,216,0.0,2.0,97,0.00,,,0.00,meteohub,2013-01-13 14:20:00,
2013-01-13 09:25:00,42.3,41.5,30.14,SW,216,0.0,2.0,97,0.00,,,0.00,meteohub,2013-01-13 14:25:00,
2013-01-13 09:30:00,42.4,41.7,30.14,SW,216,0.0,2.0,97,0.00,,,0.00,meteohub,2013-01-13 14:30:00,
2013-01-13 09:35:00,42.6,42.1,30.14,SW,227,0.0,2.0,98,0.00,,,0.00,meteohub,2013-01-13 14:35:00,
2013-01-13 09:40:00,42.6,42.1,30.14,SW,227,0.0,2.0,98,0.00,,,0.00,meteohub,2013-01-13 14:40:00,
2013-01-13 09:45:00,43.2,42.4,30.14,SW,227,0.0,2.0,97,0.00,,,0.00,meteohub,2013-01-13 14:45:00,
2013-01-13 09:50:00,43.2,42.4,30.15,SW,227,0.0,1.0,97,0.00,,,0.00,meteohub,2013-01-13 14:50:00,
2013-01-13 09:55:00,43.2,42.6,30.15,SSW,210,0.0,3.0,98,0.00,,,0.00,meteohub,2013-01-13 14:55:00,
2013-01-13 10:00:00,43.2,42.6,30.15,SSW,211,0.0,3.0,98,0.00,,,0.00,meteohub,2013-01-13 15:00:00,
2013-01-13 10:05:00,43.5,42.8,30.15,SSW,211,0.0,3.0,97,0.00,,,0.00,meteohub,2013-01-13 15:05:00,
2013-01-13 10:10:00,43.3,42.8,30.15,SSW,211,0.0,2.0,98,0.00,,,0.00,meteohub,2013-01-13 15:10:00,
2013-01-13 10:15:00,43.5,42.8,30.15,South,170,0.0,2.0,97,0.00,,,0.00,meteohub,2013-01-13 15:15:00,
2013-01-13 10:20:00,43.3,42.8,30.15,South,170,0.0,2.0,98,0.00,,,0.00,meteohub,2013-01-13 15:20:00,
2013-01-13 10:25:00,43.7,43.0,30.15,South,179,0.0,2.0,97,0.00,,,0.00,meteohub,2013-01-13 15:25:00,
2013-01-13 10:30:00,43.9,43.2,30.15,NNW,331,0.0,1.0,97,0.00,,,0.00,meteohub,2013-01-13 15:30:00,
2013-01-13 10:35:00,43.7,43.0,30.15,SSW,213,0.0,2.0,97,0.00,,,0.00,meteohub,2013-01-13 15:35:00,
2013-01-13 10:40:00,44.1,43.5,30.14,SSW,199,0.0,2.0,98,0.00,,,0.00,meteohub,2013-01-13 15:40:00,
2013-01-13 10:45:00,44.1,43.5,30.14,SW,218,0.0,2.0,98,0.00,,,0.00,meteohub,2013-01-13 15:45:00,
2013-01-13 10:51:00,44.2,43.5,30.14,SW,218,0.0,2.0,97,0.00,,,0.00,meteohub,2013-01-13 15:51:00,
2013-01-13 10:56:00,44.4,43.9,30.13,SW,218,0.0,2.0,98,0.00,,,0.00,meteohub,2013-01-13 15:56:00,
2013-01-13 11:01:00,44.2,43.5,30.13,South,189,0.0,2.0,97,0.00,,,0.00,meteohub,2013-01-13 16:01:00,
2013-01-13 11:06:00,44.1,43.3,30.13,SSW,199,0.0,2.0,97,0.00,,,0.00,meteohub,2013-01-13 16:06:00,
2013-01-13 11:11:00,44.4,43.7,30.12,SSW,206,0.0,2.0,97,0.00,,,0.00,meteohub,2013-01-13 16:11:00,
2013-01-13 11:16:00,44.6,44.1,30.12,SW,216,0.0,1.0,98,0.00,,,0.00,meteohub,2013-01-13 16:16:00,
2013-01-13 11:21:00,44.6,44.1,30.12,SW,216,0.0,2.0,98,0.00,,,0.00,meteohub,2013-01-13 16:21:00,
2013-01-13 11:26:00,44.8,44.1,30.12,South,188,0.0,2.0,97,0.00,,,0.00,meteohub,2013-01-13 16:26:00,
2013-01-13 11:31:00,45.1,44.6,30.12,South,188,0.0,3.0,98,0.00,,,0.00,meteohub,2013-01-13 16:31:00,
2013-01-13 11:36:00,45.1,44.6,30.12,South,188,0.0,3.0,98,0.00,,,0.00,meteohub,2013-01-13 16:36:00,
2013-01-13 11:41:00,45.5,44.8,30.11,WSW,254,0.0,3.0,97,0.00,,,0.00,meteohub,2013-01-13 16:41:00,
2013-01-13 11:46:00,45.3,44.6,30.11,WSW,241,0.0,4.0,97,0.00,,,0.00,meteohub,2013-01-13 16:46:00,
2013-01-13 11:51:00,45.7,45.1,30.11,WSW,245,0.0,4.0,98,0.00,,,0.00,meteohub,2013-01-13 16:51:00,
2013-01-13 11:56:00,45.9,45.3,30.11,WNW,296,0.0,4.0,98,0.00,,,0.00,meteohub,2013-01-13 16:56:00,
2013-01-13 12:01:00,45.9,45.3,30.11,West,269,0.0,3.0,98,0.00,,,0.00,meteohub,2013-01-13 17:01:00,
2013-01-13 12:06:00,45.9,45.3,30.11,West,269,1.0,3.0,98,0.00,,,0.00,meteohub,2013-01-13 17:06:00,
2013-01-13 12:11:00,45.9,45.1,30.10,WNW,296,0.0,3.0,97,0.00,,,0.00,meteohub,2013-01-13 17:11:00,
2013-01-13 12:16:00,46.0,45.3,30.11,WNW,285,2.0,3.0,97,0.00,,,0.00,meteohub,2013-01-13 17:16:00,
2013-01-13 12:21:00,46.0,45.3,30.10,NW,307,0.0,3.0,97,0.00,,,0.00,meteohub,2013-01-13 17:21:00,
2013-01-13 12:26:00,46.0,45.3,30.10,WNW,288,0.0,3.0,97,0.00,,,0.00,meteohub,2013-01-13 17:26:00,
2013-01-13 12:31:00,46.2,45.5,30.09,South,181,0.0,3.0,97,0.00,,,0.00,meteohub,2013-01-13 17:31:00,
2013-01-13 12:36:00,46.2,45.7,30.09,WSW,249,0.0,3.0,98,0.00,,,0.00,meteohub,2013-01-13 17:36:00,
2013-01-13 12:41:00,46.2,45.7,30.09,SW,220,0.0,3.0,98,0.00,,,0.00,meteohub,2013-01-13 17:41:00,
2013-01-13 12:46:00,46.0,45.3,30.09,SW,231,0.0,3.0,97,0.00,,,0.00,meteohub,2013-01-13 17:46:00,
2013-01-13 12:51:00,46.4,45.9,30.08,SW,236,2.0,3.0,98,0.00,,,0.00,meteohub,2013-01-13 17:51:00,
2013-01-13 12:56:00,46.6,46.0,30.09,SW,236,0.0,2.0,98,0.00,,,0.00,meteohub,2013-01-13 17:56:00,
2013-01-13 13:01:00,46.4,45.9,30.08,SSE,148,2.0,2.0,98,0.00,,,0.00,meteohub,2013-01-13 18:01:00,
2013-01-13 13:06:00,46.2,45.7,30.08,SSE,161,0.0,3.0,98,0.00,,,0.00,meteohub,2013-01-13 18:06:00,
2013-01-13 13:11:00,46.6,46.0,30.08,West,276,1.0,3.0,98,0.00,,,0.00,meteohub,2013-01-13 18:11:00,
2013-01-13 13:16:00,46.6,45.9,30.08,SW,223,1.0,3.0,97,0.00,,,0.00,meteohub,2013-01-13 18:16:00,
2013-01-13 13:21:00,46.8,46.0,30.08,WSW,240,0.0,3.0,97,0.00,,,0.00,meteohub,2013-01-13 18:21:00,
2013-01-13 13:26:00,46.8,46.2,30.08,SW,229,1.0,4.0,98,0.00,,,0.00,meteohub,2013-01-13 18:26:00,
2013-01-13 13:31:00,46.8,46.2,30.08,SSW,200,0.0,4.0,98,0.00,,,0.00,meteohub,2013-01-13 18:31:00,
2013-01-13 13:36:00,46.9,46.4,30.08,SSW,210,0.0,4.0,98,0.00,,,0.00,meteohub,2013-01-13 18:36:00,
2013-01-13 13:41:00,46.9,46.2,30.07,SSW,205,2.0,4.0,97,0.00,,,0.00,meteohub,2013-01-13 18:41:00,
2013-01-13 13:46:00,47.1,46.4,30.07,WSW,257,1.0,3.0,97,0.00,,,0.00,meteohub,2013-01-13 18:46:00,
2013-01-13 13:51:00,47.3,46.6,30.07,SSW,207,1.0,4.0,97,0.00,,,0.00,meteohub,2013-01-13 18:51:00,
2013-01-13 13:56:00,47.3,46.8,30.07,WSW,256,3.0,4.0,98,0.00,,,0.00,meteohub,2013-01-13 18:56:00,
2013-01-13 14:01:00,47.3,46.8,30.07,SSW,202,1.0,4.0,98,0.00,,,0.00,meteohub,2013-01-13 19:01:00,
2013-01-13 14:06:00,47.3,46.8,30.07,South,184,0.0,3.0,98,0.00,,,0.00,meteohub,2013-01-13 19:06:00,
2013-01-13 14:11:00,47.5,46.8,30.07,WSW,244,2.0,3.0,97,0.00,,,0.00,meteohub,2013-01-13 19:11:00,
2013-01-13 14:16:00,47.5,46.8,30.06,West,269,0.0,5.0,97,0.00,,,0.00,meteohub,2013-01-13 19:16:00,
2013-01-13 14:22:00,47.5,46.8,30.06,SSE,166,1.0,5.0,97,0.00,,,0.00,meteohub,2013-01-13 19:22:00,
2013-01-13 14:27:00,47.5,46.8,30.06,ESE,119,1.0,5.0,97,0.00,,,0.00,meteohub,2013-01-13 19:27:00,
2013-01-13 14:32:00,47.7,46.9,30.06,SW,233,1.0,4.0,97,0.00,,,0.00,meteohub,2013-01-13 19:32:00,
2013-01-13 14:37:00,47.7,46.9,30.06,West,260,0.0,5.0,97,0.00,,,0.00,meteohub,2013-01-13 19:37:00,
2013-01-13 14:42:00,47.8,46.9,30.06,NW,309,1.0,5.0,97,0.00,,,0.00,meteohub,2013-01-13 19:42:00,
2013-01-13 14:47:00,47.8,46.9,30.05,West,259,0.0,5.0,97,0.00,,,0.00,meteohub,2013-01-13 19:47:00,
2013-01-13 14:52:00,48.0,47.1,30.06,WSW,257,5.0,5.0,97,0.00,,,0.00,meteohub,2013-01-13 19:52:00,
2013-01-13 14:57:00,48.0,46.9,30.05,South,173,0.0,5.0,96,0.00,,,0.00,meteohub,2013-01-13 19:57:00,
2013-01-13 15:02:00,48.2,47.3,30.05,SE,137,1.0,5.0,97,0.00,,,0.00,meteohub,2013-01-13 20:02:00,
2013-01-13 15:07:00,48.4,47.3,30.05,NW,307,1.0,5.0,96,0.00,,,0.00,meteohub,2013-01-13 20:07:00,
2013-01-13 15:12:00,48.4,47.3,30.06,SW,222,0.0,3.0,96,0.00,,,0.00,meteohub,2013-01-13 20:12:00,
2013-01-13 15:17:00,48.4,47.3,30.06,South,188,1.0,3.0,96,0.00,,,0.00,meteohub,2013-01-13 20:17:00,
2013-01-13 15:22:00,48.4,47.3,30.06,West,267,1.0,4.0,96,0.00,,,0.00,meteohub,2013-01-13 20:22:00,
2013-01-13 15:27:00,48.6,47.5,30.05,SW,229,1.0,4.0,96,0.00,,,0.00,meteohub,2013-01-13 20:27:00,
2013-01-13 15:32:00,48.6,47.1,30.05,SW,217,1.0,4.0,95,0.00,,,0.00,meteohub,2013-01-13 20:32:00,
2013-01-13 15:37:00,48.4,46.9,30.04,SSW,209,2.0,4.0,95,0.00,,,0.00,meteohub,2013-01-13 20:37:00,
2013-01-13 15:42:00,48.4,46.9,30.04,SSW,202,1.0,4.0,95,0.00,,,0.00,meteohub,2013-01-13 20:42:00,
2013-01-13 15:47:00,48.6,46.9,30.04,NW,311,0.0,5.0,94,0.00,,,0.00,meteohub,2013-01-13 20:47:00,
2013-01-13 15:52:00,48.4,46.8,30.04,SW,224,0.0,5.0,94,0.00,,,0.00,meteohub,2013-01-13 20:52:00,
2013-01-13 15:57:00,48.4,46.8,30.04,WSW,238,0.0,5.0,94,0.00,,,0.00,meteohub,2013-01-13 20:57:00,
2013-01-13 16:02:00,48.4,46.8,30.04,SW,234,1.0,2.0,94,0.00,,,0.00,meteohub,2013-01-13 21:02:00,
2013-01-13 16:07:00,48.4,46.8,30.05,West,279,1.0,3.0,94,0.00,,,0.00,meteohub,2013-01-13 21:07:00,
2013-01-13 16:12:00,48.4,46.8,30.05,WNW,300,1.0,3.0,94,0.00,,,0.00,meteohub,2013-01-13 21:12:00,
2013-01-13 16:17:00,48.4,46.8,30.05,WNW,300,0.0,4.0,94,0.00,,,0.00,meteohub,2013-01-13 21:17:00,
2013-01-13 16:22:00,48.4,46.8,30.04,WNW,298,1.0,4.0,94,0.00,,,0.00,meteohub,2013-01-13 21:22:00,
2013-01-13 16:27:00,48.4,46.8,30.04,South,188,0.0,3.0,94,0.00,,,0.00,meteohub,2013-01-13 21:27:00,
2013-01-13 16:32:00,48.6,46.9,30.04,SW,219,0.0,5.0,94,0.00,,,0.00,meteohub,2013-01-13 21:32:00,
2013-01-13 16:37:00,48.6,46.6,30.04,South,181,1.0,5.0,93,0.00,,,0.00,meteohub,2013-01-13 21:37:00,
2013-01-13 16:42:00,48.6,46.6,30.04,West,281,1.0,5.0,93,0.00,,,0.00,meteohub,2013-01-13 21:42:00,
2013-01-13 16:47:00,48.6,46.6,30.04,South,186,1.0,3.0,93,0.00,,,0.00,meteohub,2013-01-13 21:47:00,
2013-01-13 16:52:00,48.4,46.4,30.04,SW,234,1.0,3.0,93,0.00,,,0.00,meteohub,2013-01-13 21:52:00,
2013-01-13 16:57:00,48.4,46.4,30.04,SW,219,0.0,2.0,93,0.00,,,0.00,meteohub,2013-01-13 21:57:00,
2013-01-13 17:02:00,48.4,46.4,30.04,WSW,238,0.0,2.0,93,0.00,,,0.00,meteohub,2013-01-13 22:02:00,
2013-01-13 17:07:00,48.2,46.2,30.04,South,185,1.0,3.0,93,0.00,,,0.00,meteohub,2013-01-13 22:07:00,
2013-01-13 17:12:00,48.0,46.0,30.04,WSW,253,0.0,3.0,93,0.00,,,0.00,meteohub,2013-01-13 22:12:00,
2013-01-13 17:17:00,48.0,46.0,30.03,WSW,253,0.0,3.0,93,0.00,,,0.00,meteohub,2013-01-13 22:17:00,
2013-01-13 17:22:00,47.8,46.2,30.03,SW,215,0.0,2.0,94,0.00,,,0.00,meteohub,2013-01-13 22:22:00,
2013-01-13 17:27:00,47.8,46.2,30.03,SSW,205,0.0,2.0,94,0.00,,,0.00,meteohub,2013-01-13 22:27:00,
2013-01-13 17:32:00,47.7,46.0,30.03,SE,130,0.0,2.0,94,0.00,,,0.00,meteohub,2013-01-13 22:32:00,
2013-01-13 17:37:00,47.7,46.0,30.03,SW,226,0.0,2.0,94,0.00,,,0.00,meteohub,2013-01-13 22:37:00,
2013-01-13 17:42:00,47.7,46.0,30.03,WSW,239,0.0,2.0,94,0.00,,,0.00,meteohub,2013-01-13 22:42:00,
2013-01-13 17:47:00,47.7,46.0,30.03,SW,214,0.0,3.0,94,0.00,,,0.00,meteohub,2013-01-13 22:47:00,
2013-01-13 17:52:00,47.8,46.2,30.03,South,170,2.0,3.0,94,0.00,,,0.00,meteohub,2013-01-13 22:52:00,
2013-01-13 17:57:00,47.8,46.2,30.02,SSW,213,0.0,3.0,94,0.00,,,0.00,meteohub,2013-01-13 22:57:00,
2013-01-13 18:02:00,47.8,46.2,30.01,South,184,4.0,4.0,94,0.00,,,0.00,meteohub,2013-01-13 23:02:00,
2013-01-13 18:07:00,47.8,46.2,30.02,SSW,196,1.0,4.0,94,0.00,,,0.00,meteohub,2013-01-13 23:07:00,
2013-01-13 18:12:00,47.8,46.2,30.02,SSW,212,0.0,4.0,94,0.00,,,0.00,meteohub,2013-01-13 23:12:00,
2013-01-13 18:17:00,47.7,46.0,30.02,SW,227,3.0,4.0,94,0.00,,,0.00,meteohub,2013-01-13 23:17:00,
2013-01-13 18:22:00,47.7,46.0,30.02,SSW,198,1.0,4.0,94,0.00,,,0.00,meteohub,2013-01-13 23:22:00,
2013-01-13 18:27:00,47.7,46.0,30.02,South,190,0.0,4.0,94,0.00,,,0.00,meteohub,2013-01-13 23:27:00,
2013-01-13 18:32:00,47.7,46.0,30.02,SW,229,1.0,4.0,94,0.00,,,0.00,meteohub,2013-01-13 23:32:00,
2013-01-13 18:37:00,47.7,46.0,30.02,West,276,1.0,4.0,94,0.00,,,0.00,meteohub,2013-01-13 23:37:00,
2013-01-13 18:42:00,47.7,46.0,30.02,WSW,257,0.0,3.0,94,0.00,,,0.00,meteohub,2013-01-13 23:42:00,
2013-01-13 18:47:00,47.7,46.0,30.02,WSW,237,0.0,3.0,94,0.00,,,0.00,meteohub,2013-01-13 23:47:00,
2013-01-13 18:52:00,47.7,46.0,30.03,WSW,237,1.0,3.0,94,0.00,,,0.00,meteohub,2013-01-13 23:52:00,
2013-01-13 18:57:00,47.8,46.2,30.02,WSW,245,0.0,3.0,94,0.00,,,0.00,meteohub,2013-01-13 23:57:00,
2013-01-13 19:02:00,47.8,46.2,30.02,WNW,287,3.0,3.0,94,0.00,,,0.00,meteohub,2013-01-14 00:02:00,
2013-01-13 19:07:00,47.7,46.0,30.03,West,275,1.0,3.0,94,0.00,,,0.00,meteohub,2013-01-14 00:07:00,
2013-01-13 19:12:00,47.7,46.0,30.03,West,273,1.0,3.0,94,0.00,,,0.00,meteohub,2013-01-14 00:12:00,
2013-01-13 19:17:00,47.7,46.0,30.03,WSW,242,0.0,5.0,94,0.00,,,0.00,meteohub,2013-01-14 00:17:00,
2013-01-13 19:22:00,47.8,46.2,30.03,WNW,302,2.0,5.0,94,0.00,,,0.00,meteohub,2013-01-14 00:22:00,
2013-01-13 19:27:00,47.8,46.2,30.03,WSW,254,2.0,5.0,94,0.00,,,0.00,meteohub,2013-01-14 00:27:00,
2013-01-13 19:32:00,47.8,46.2,30.03,WNW,287,4.0,5.0,94,0.00,,,0.00,meteohub,2013-01-14 00:32:00,
2013-01-13 19:37:00,47.8,46.2,30.03,WNW,288,3.0,5.0,94,0.00,,,0.00,meteohub,2013-01-14 00:37:00,
2013-01-13 19:42:00,47.8,46.2,30.03,NW,309,2.0,5.0,94,0.00,,,0.00,meteohub,2013-01-14 00:42:00,
2013-01-13 19:47:00,47.8,46.2,30.03,West,275,2.0,5.0,94,0.00,,,0.00,meteohub,2013-01-14 00:47:00,
2013-01-13 19:52:00,47.7,46.0,30.03,WNW,289,2.0,5.0,94,0.00,,,0.00,meteohub,2013-01-14 00:52:00,
2013-01-13 19:57:00,47.7,46.0,30.03,NW,310,0.0,5.0,94,0.00,,,0.00,meteohub,2013-01-14 00:57:00,
2013-01-13 20:02:00,47.8,46.2,30.03,WSW,247,1.0,6.0,94,0.00,,,0.00,meteohub,2013-01-14 01:02:00,
2013-01-13 20:07:00,47.8,46.2,30.03,WNW,298,2.0,6.0,94,0.00,,,0.00,meteohub,2013-01-14 01:07:00,
2013-01-13 20:12:00,47.8,46.2,30.03,West,262,4.0,6.0,94,0.00,,,0.00,meteohub,2013-01-14 01:12:00,
2013-01-13 20:17:00,47.8,46.2,30.02,West,281,0.0,6.0,94,0.00,,,0.00,meteohub,2013-01-14 01:17:00,
2013-01-13 20:22:00,47.8,46.2,30.02,WSW,258,4.0,6.0,94,0.00,,,0.00,meteohub,2013-01-14 01:22:00,
2013-01-13 20:27:00,48.0,46.4,30.01,WSW,248,3.0,5.0,94,0.00,,,0.00,meteohub,2013-01-14 01:27:00,
2013-01-13 20:32:00,48.0,46.4,30.02,WSW,246,4.0,7.0,94,0.00,,,0.00,meteohub,2013-01-14 01:32:00,
2013-01-13 20:37:00,48.0,46.0,30.02,West,274,0.0,7.0,93,0.00,,,0.00,meteohub,2013-01-14 01:37:00,
2013-01-13 20:42:00,48.0,46.4,30.02,WNW,282,2.0,7.0,94,0.00,,,0.00,meteohub,2013-01-14 01:42:00,
2013-01-13 20:47:00,48.0,46.0,30.02,WNW,284,3.0,7.0,93,0.00,,,0.00,meteohub,2013-01-14 01:47:00,
2013-01-13 20:52:00,48.2,46.2,30.02,North,5,2.0,5.0,93,0.00,,,0.00,meteohub,2013-01-14 01:52:00,
2013-01-13 20:57:00,48.4,46.4,30.02,West,275,3.0,7.0,93,0.00,,,0.00,meteohub,2013-01-14 01:57:00,
2013-01-13 21:02:00,48.4,46.4,30.01,SW,214,2.0,7.0,93,0.00,,,0.00,meteohub,2013-01-14 02:02:00,
2013-01-13 21:07:00,48.4,46.4,30.01,West,275,1.0,7.0,93,0.00,,,0.00,meteohub,2013-01-14 02:07:00,
2013-01-13 21:12:00,48.4,46.4,30.01,NW,311,2.0,8.0,93,0.00,,,0.00,meteohub,2013-01-14 02:12:00,
2013-01-13 21:17:00,48.4,46.4,30.01,West,269,3.0,8.0,93,0.00,,,0.00,meteohub,2013-01-14 02:17:00,
2013-01-13 21:22:00,48.2,46.2,30.01,NW,304,3.0,5.0,93,0.00,,,0.00,meteohub,2013-01-14 02:22:00,
2013-01-13 21:27:00,48.2,46.2,30.01,West,261,1.0,5.0,93,0.00,,,0.00,meteohub,2013-01-14 02:27:00,
2013-01-13 21:32:00,48.2,46.2,30.01,WNW,291,2.0,4.0,93,0.00,,,0.00,meteohub,2013-01-14 02:32:00,
2013-01-13 21:37:00,48.2,46.2,30.01,West,270,1.0,5.0,93,0.00,,,0.00,meteohub,2013-01-14 02:37:00,
2013-01-13 21:42:00,48.2,46.2,30.00,SW,228,0.0,5.0,93,0.00,,,0.00,meteohub,2013-01-14 02:42:00,
2013-01-13 21:47:00,48.4,46.4,30.00,WNW,283,2.0,4.0,93,0.00,,,0.00,meteohub,2013-01-14 02:47:00,
2013-01-13 21:52:00,48.6,46.6,30.00,NW,323,4.0,7.0,93,0.00,,,0.00,meteohub,2013-01-14 02:52:00,
2013-01-13 21:57:00,48.7,46.8,30.00,West,262,2.0,7.0,93,0.00,,,0.00,meteohub,2013-01-14 02:57:00,
2013-01-13 22:02:00,48.7,46.8,30.00,SW,225,0.0,7.0,93,0.00,,,0.00,meteohub,2013-01-14 03:02:00,
2013-01-13 22:07:00,48.7,46.8,30.00,West,279,3.0,6.0,93,0.00,,,0.00,meteohub,2013-01-14 03:07:00,
2013-01-13 22:12:00,48.7,46.8,30.00,West,262,1.0,7.0,93,0.00,,,0.00,meteohub,2013-01-14 03:12:00,
2013-01-13 22:17:00,48.7,46.8,30.00,West,265,3.0,7.0,93,0.00,,,0.00,meteohub,2013-01-14 03:17:00,
2013-01-13 22:22:00,48.7,46.8,30.00,West,265,3.0,7.0,93,0.00,,,0.00,meteohub,2013-01-14 03:22:00,
2013-01-13 22:27:00,48.7,47.1,29.99,West,261,1.0,6.0,94,0.00,,,0.00,meteohub,2013-01-14 03:27:00,
2013-01-13 22:32:00,48.7,47.1,30.00,WSW,254,1.0,5.0,94,0.00,,,0.00,meteohub,2013-01-14 03:32:00,
2013-01-13 22:37:00,48.7,47.1,30.00,WNW,299,1.0,4.0,94,0.00,,,0.00,meteohub,2013-01-14 03:37:00,
2013-01-13 22:42:00,48.9,47.3,30.00,WSW,256,0.0,4.0,94,0.00,,,0.00,meteohub,2013-01-14 03:42:00,
2013-01-13 22:47:00,48.9,47.3,30.00,WNW,288,4.0,7.0,94,0.00,,,0.00,meteohub,2013-01-14 03:47:00,
2013-01-13 22:53:00,48.7,47.1,30.00,WSW,257,2.0,7.0,94,0.00,,,0.00,meteohub,2013-01-14 03:53:00,
2013-01-13 22:58:00,48.9,47.3,30.00,South,170,1.0,7.0,94,0.00,,,0.00,meteohub,2013-01-14 03:58:00,
2013-01-13 23:03:00,48.9,47.3,30.00,WNW,296,3.0,6.0,94,0.00,,,0.00,meteohub,2013-01-14 04:03:00,
2013-01-13 23:08:00,48.9,47.3,30.00,West,277,4.0,5.0,94,0.00,,,0.00,meteohub,2013-01-14 04:08:00,
2013-01-13 23:13:00,48.9,47.3,30.00,WNW,286,1.0,5.0,94,0.00,,,0.00,meteohub,2013-01-14 04:13:00,
2013-01-13 23:18:00,48.9,47.3,30.00,West,279,2.0,5.0,94,0.00,,,0.00,meteohub,2013-01-14 04:18:00,
2013-01-13 23:23:00,48.9,47.3,30.00,SSE,166,0.0,5.0,94,0.00,,,0.00,meteohub,2013-01-14 04:23:00,
2013-01-13 23:28:00,48.9,47.5,30.00,West,268,3.0,5.0,95,0.00,,,0.00,meteohub,2013-01-14 04:28:00,
2013-01-13 23:33:00,48.9,47.5,30.00,West,269,0.0,6.0,95,0.00,,,0.00,meteohub,2013-01-14 04:33:00,
2013-01-13 23:38:00,48.9,47.5,30.00,WNW,286,1.0,6.0,95,0.00,,,0.00,meteohub,2013-01-14 04:38:00,
2013-01-13 23:43:00,48.9,47.5,30.00,West,273,0.0,3.0,95,0.00,,,0.00,meteohub,2013-01-14 04:43:00,
2013-01-13 23:48:00,48.9,47.5,30.00,NW,306,1.0,3.0,95,0.00,,,0.00,meteohub,2013-01-14 04:48:00,
2013-01-13 23:53:00,48.7,47.3,30.00,WSW,238,1.0,3.0,95,0.00,,,0.00,meteohub,2013-01-14 04:53:00,
2013-01-13 23:58:00,48.9,47.5,30.00,West,269,0.0,5.0,95,0.00,,,0.00,meteohub,2013-01-14 04:58:00,